sensor_id;sensor_type;location;lat;lon;timestamp;temperature;humidity
43043;DHT22;28667;50.758;6.096;2022-08-01T00:01:11;20.50;99.90
43043;DHT22;28667;50.758;6.096;2022-08-01T00:03:37;20.40;99.90
43043;DHT22;28667;50.758;6.096;2022-08-01T00:06:04;20.40;99.90
43043;DHT22;28667;50.758;6.096;2022-08-01T00:08:31;20.30;99.90
43043;DHT22;28667;50.758;6.096;2022-08-01T00:10:56;20.20;99.90
43043;DHT22;28667;50.758;6.096;2022-08-01T00:13:23;20.10;99.90
43043;DHT22;28667;50.758;6.096;2022-08-01T00:15:49;20.10;99.90
43043;DHT22;28667;50.758;6.096;2022-08-01T00:18:15;20.00;99.90
43043;DHT22;28667;50.758;6.096;2022-08-01T00:20:41;19.90;99.90
43043;DHT22;28667;50.758;6.096;2022-08-01T00:23:07;19.80;99.90
43043;DHT22;28667;50.758;6.096;2022-08-01T00:25:33;19.80;99.90
43043;DHT22;28667;50.758;6.096;2022-08-01T00:27:59;19.70;99.90
43043;DHT22;28667;50.758;6.096;2022-08-01T00:30:25;19.70;99.90
43043;DHT22;28667;50.758;6.096;2022-08-01T00:32:51;19.60;99.90
43043;DHT22;28667;50.758;6.096;2022-08-01T00:35:17;19.60;99.90
43043;DHT22;28667;50.758;6.096;2022-08-01T00:37:43;19.50;99.90
43043;DHT22;28667;50.758;6.096;2022-08-01T00:40:10;19.40;99.90
43043;DHT22;28667;50.758;6.096;2022-08-01T00:42:36;19.30;99.90
43043;DHT22;28667;50.758;6.096;2022-08-01T00:45:02;19.20;99.90
43043;DHT22;28667;50.758;6.096;2022-08-01T00:47:28;19.20;99.90
43043;DHT22;28667;50.758;6.096;2022-08-01T00:49:54;19.20;99.90
43043;DHT22;28667;50.758;6.096;2022-08-01T00:52:20;19.20;99.90
43043;DHT22;28667;50.758;6.096;2022-08-01T00:54:46;19.20;99.90
43043;DHT22;28667;50.758;6.096;2022-08-01T00:57:13;19.10;99.90
43043;DHT22;28667;50.758;6.096;2022-08-01T00:59:40;19.10;99.90
43043;DHT22;28667;50.758;6.096;2022-08-01T01:02:06;19.10;99.90
43043;DHT22;28667;50.758;6.096;2022-08-01T01:04:33;19.10;99.90
43043;DHT22;28667;50.758;6.096;2022-08-01T01:15:26;19.00;99.90
43043;DHT22;28667;50.758;6.096;2022-08-01T01:18:02;19.00;99.90
43043;DHT22;28667;50.758;6.096;2022-08-01T01:20:37;19.00;99.90
43043;DHT22;28667;50.758;6.096;2022-08-01T01:23:44;19.00;99.90
43043;DHT22;28667;50.758;6.096;2022-08-01T01:31:26;19.10;99.90
43043;DHT22;28667;50.758;6.096;2022-08-01T01:33:53;19.00;99.90
43043;DHT22;28667;50.758;6.096;2022-08-01T01:36:22;19.00;99.90
43043;DHT22;28667;50.758;6.096;2022-08-01T01:38:51;19.00;99.90
43043;DHT22;28667;50.758;6.096;2022-08-01T01:41:18;19.00;99.90
43043;DHT22;28667;50.758;6.096;2022-08-01T01:43:46;19.00;99.90
43043;DHT22;28667;50.758;6.096;2022-08-01T01:46:17;19.00;99.90
43043;DHT22;28667;50.758;6.096;2022-08-01T01:48:45;19.00;99.90
43043;DHT22;28667;50.758;6.096;2022-08-01T01:51:13;19.10;99.90
43043;DHT22;28667;50.758;6.096;2022-08-01T01:53:41;19.10;99.90
43043;DHT22;28667;50.758;6.096;2022-08-01T01:56:09;19.00;99.90
43043;DHT22;28667;50.758;6.096;2022-08-01T01:58:35;19.00;99.90
43043;DHT22;28667;50.758;6.096;2022-08-01T02:01:04;19.00;99.90
43043;DHT22;28667;50.758;6.096;2022-08-01T02:03:34;19.00;99.90
43043;DHT22;28667;50.758;6.096;2022-08-01T02:06:02;19.00;99.90
43043;DHT22;28667;50.758;6.096;2022-08-01T02:08:29;19.00;99.90
43043;DHT22;28667;50.758;6.096;2022-08-01T02:10:57;19.00;99.90
43043;DHT22;28667;50.758;6.096;2022-08-01T02:13:43;19.00;99.90
43043;DHT22;28667;50.758;6.096;2022-08-01T02:16:10;19.10;99.90
43043;DHT22;28667;50.758;6.096;2022-08-01T02:18:37;19.00;99.90
43043;DHT22;28667;50.758;6.096;2022-08-01T02:21:05;19.00;99.90
43043;DHT22;28667;50.758;6.096;2022-08-01T02:26:33;19.10;99.90
43043;DHT22;28667;50.758;6.096;2022-08-01T02:29:06;19.10;99.90
43043;DHT22;28667;50.758;6.096;2022-08-01T02:31:35;19.10;99.90
43043;DHT22;28667;50.758;6.096;2022-08-01T02:34:06;19.10;99.90
43043;DHT22;28667;50.758;6.096;2022-08-01T02:36:35;19.10;99.90
43043;DHT22;28667;50.758;6.096;2022-08-01T02:39:06;19.10;99.90
43043;DHT22;28667;50.758;6.096;2022-08-01T02:41:38;19.10;99.90
43043;DHT22;28667;50.758;6.096;2022-08-01T02:44:07;19.10;99.90
43043;DHT22;28667;50.758;6.096;2022-08-01T02:46:59;19.10;99.90
43043;DHT22;28667;50.758;6.096;2022-08-01T02:49:25;19.10;99.90
43043;DHT22;28667;50.758;6.096;2022-08-01T02:51:53;19.10;99.90
43043;DHT22;28667;50.758;6.096;2022-08-01T02:54:21;19.10;99.90
43043;DHT22;28667;50.758;6.096;2022-08-01T02:56:50;19.10;99.90
43043;DHT22;28667;50.758;6.096;2022-08-01T02:59:19;19.10;99.90
43043;DHT22;28667;50.758;6.096;2022-08-01T03:01:47;19.10;99.90
43043;DHT22;28667;50.758;6.096;2022-08-01T03:04:14;19.10;99.90
43043;DHT22;28667;50.758;6.096;2022-08-01T03:06:44;19.10;99.90
43043;DHT22;28667;50.758;6.096;2022-08-01T03:09:11;19.10;99.90
43043;DHT22;28667;50.758;6.096;2022-08-01T03:11:39;19.10;99.90
43043;DHT22;28667;50.758;6.096;2022-08-01T03:14:09;19.10;99.90
43043;DHT22;28667;50.758;6.096;2022-08-01T03:16:38;19.10;99.90
43043;DHT22;28667;50.758;6.096;2022-08-01T03:19:05;19.10;99.90
43043;DHT22;28667;50.758;6.096;2022-08-01T03:21:33;19.10;99.90
43043;DHT22;28667;50.758;6.096;2022-08-01T03:24:01;19.10;99.90
43043;DHT22;28667;50.758;6.096;2022-08-01T03:26:31;19.10;99.90
43043;DHT22;28667;50.758;6.096;2022-08-01T03:29:03;19.10;99.90
43043;DHT22;28667;50.758;6.096;2022-08-01T03:31:34;19.10;99.90
43043;DHT22;28667;50.758;6.096;2022-08-01T03:34:01;19.00;99.90
43043;DHT22;28667;50.758;6.096;2022-08-01T03:36:28;19.00;99.90
43043;DHT22;28667;50.758;6.096;2022-08-01T03:38:58;19.00;99.90
43043;DHT22;28667;50.758;6.096;2022-08-01T03:41:32;19.00;99.90
43043;DHT22;28667;50.758;6.096;2022-08-01T03:44:07;19.00;99.90
43043;DHT22;28667;50.758;6.096;2022-08-01T03:46:44;18.90;99.90
43043;DHT22;28667;50.758;6.096;2022-08-01T03:49:16;19.00;99.90
43043;DHT22;28667;50.758;6.096;2022-08-01T03:51:45;18.90;99.90
43043;DHT22;28667;50.758;6.096;2022-08-01T03:54:15;18.90;99.90
43043;DHT22;28667;50.758;6.096;2022-08-01T03:56:43;18.90;99.90
43043;DHT22;28667;50.758;6.096;2022-08-01T03:59:09;18.90;99.90
43043;DHT22;28667;50.758;6.096;2022-08-01T04:01:36;18.80;99.90
43043;DHT22;28667;50.758;6.096;2022-08-01T04:04:03;18.80;99.90
43043;DHT22;28667;50.758;6.096;2022-08-01T04:06:31;18.90;99.90
43043;DHT22;28667;50.758;6.096;2022-08-01T04:08:58;18.90;99.90
43043;DHT22;28667;50.758;6.096;2022-08-01T04:11:26;18.90;99.90
43043;DHT22;28667;50.758;6.096;2022-08-01T04:13:54;18.90;99.90
43043;DHT22;28667;50.758;6.096;2022-08-01T04:16:21;18.90;99.90
43043;DHT22;28667;50.758;6.096;2022-08-01T04:18:48;18.90;99.90
43043;DHT22;28667;50.758;6.096;2022-08-01T04:21:20;18.90;99.90
43043;DHT22;28667;50.758;6.096;2022-08-01T04:23:49;18.90;99.90
43043;DHT22;28667;50.758;6.096;2022-08-01T04:26:17;18.90;99.90
43043;DHT22;28667;50.758;6.096;2022-08-01T04:28:44;18.90;99.90
43043;DHT22;28667;50.758;6.096;2022-08-01T04:31:12;18.90;99.90
43043;DHT22;28667;50.758;6.096;2022-08-01T04:33:44;18.90;99.90
43043;DHT22;28667;50.758;6.096;2022-08-01T04:36:12;18.90;99.90
43043;DHT22;28667;50.758;6.096;2022-08-01T04:38:42;19.00;99.90
43043;DHT22;28667;50.758;6.096;2022-08-01T04:41:11;19.00;99.90
43043;DHT22;28667;50.758;6.096;2022-08-01T04:43:38;19.00;99.90
43043;DHT22;28667;50.758;6.096;2022-08-01T04:46:08;19.10;99.90
43043;DHT22;28667;50.758;6.096;2022-08-01T04:48:37;19.10;99.90
43043;DHT22;28667;50.758;6.096;2022-08-01T04:51:09;19.00;99.90
43043;DHT22;28667;50.758;6.096;2022-08-01T04:53:37;19.00;99.90
43043;DHT22;28667;50.758;6.096;2022-08-01T04:56:03;19.10;99.90
43043;DHT22;28667;50.758;6.096;2022-08-01T04:58:29;19.10;99.90
43043;DHT22;28667;50.758;6.096;2022-08-01T05:00:55;19.10;99.90
43043;DHT22;28667;50.758;6.096;2022-08-01T05:03:21;19.10;99.90
43043;DHT22;28667;50.758;6.096;2022-08-01T05:05:47;19.10;99.90
43043;DHT22;28667;50.758;6.096;2022-08-01T05:08:14;19.20;99.90
43043;DHT22;28667;50.758;6.096;2022-08-01T05:10:40;19.30;99.90
43043;DHT22;28667;50.758;6.096;2022-08-01T05:13:06;19.30;99.90
43043;DHT22;28667;50.758;6.096;2022-08-01T05:15:32;19.20;99.90
43043;DHT22;28667;50.758;6.096;2022-08-01T05:17:58;19.20;99.90
43043;DHT22;28667;50.758;6.096;2022-08-01T05:20:24;19.30;99.90
43043;DHT22;28667;50.758;6.096;2022-08-01T05:22:50;19.30;99.90
43043;DHT22;28667;50.758;6.096;2022-08-01T05:25:16;19.40;99.90
43043;DHT22;28667;50.758;6.096;2022-08-01T05:27:42;19.40;99.90
43043;DHT22;28667;50.758;6.096;2022-08-01T05:30:09;19.40;99.90
43043;DHT22;28667;50.758;6.096;2022-08-01T05:32:35;19.40;99.90
43043;DHT22;28667;50.758;6.096;2022-08-01T05:35:02;19.50;99.90
43043;DHT22;28667;50.758;6.096;2022-08-01T05:37:29;19.60;99.90
43043;DHT22;28667;50.758;6.096;2022-08-01T05:39:54;19.70;99.90
43043;DHT22;28667;50.758;6.096;2022-08-01T05:42:20;19.80;99.90
43043;DHT22;28667;50.758;6.096;2022-08-01T05:44:47;19.80;99.90
43043;DHT22;28667;50.758;6.096;2022-08-01T05:47:13;19.90;99.90
43043;DHT22;28667;50.758;6.096;2022-08-01T05:49:39;20.00;99.90
43043;DHT22;28667;50.758;6.096;2022-08-01T05:52:06;20.20;99.90
43043;DHT22;28667;50.758;6.096;2022-08-01T05:54:32;20.20;99.90
43043;DHT22;28667;50.758;6.096;2022-08-01T05:56:58;20.10;99.90
43043;DHT22;28667;50.758;6.096;2022-08-01T05:59:28;20.10;99.90
43043;DHT22;28667;50.758;6.096;2022-08-01T06:01:55;20.00;99.90
43043;DHT22;28667;50.758;6.096;2022-08-01T06:04:21;20.00;99.90
43043;DHT22;28667;50.758;6.096;2022-08-01T06:06:48;20.00;99.90
43043;DHT22;28667;50.758;6.096;2022-08-01T06:09:14;19.90;99.90
43043;DHT22;28667;50.758;6.096;2022-08-01T06:11:40;19.90;99.90
43043;DHT22;28667;50.758;6.096;2022-08-01T06:14:06;19.90;99.90
43043;DHT22;28667;50.758;6.096;2022-08-01T06:16:33;19.90;99.90
43043;DHT22;28667;50.758;6.096;2022-08-01T06:18:59;19.90;99.90
43043;DHT22;28667;50.758;6.096;2022-08-01T06:21:25;19.90;99.90
43043;DHT22;28667;50.758;6.096;2022-08-01T06:23:51;19.90;99.90
43043;DHT22;28667;50.758;6.096;2022-08-01T06:26:18;20.00;99.90
43043;DHT22;28667;50.758;6.096;2022-08-01T06:28:44;20.00;99.90
43043;DHT22;28667;50.758;6.096;2022-08-01T06:31:10;20.20;99.90
43043;DHT22;28667;50.758;6.096;2022-08-01T06:33:38;20.30;99.90
43043;DHT22;28667;50.758;6.096;2022-08-01T06:36:04;20.30;99.90
43043;DHT22;28667;50.758;6.096;2022-08-01T06:38:31;20.30;99.90
43043;DHT22;28667;50.758;6.096;2022-08-01T06:40:57;20.40;99.90
43043;DHT22;28667;50.758;6.096;2022-08-01T06:43:23;20.40;99.90
43043;DHT22;28667;50.758;6.096;2022-08-01T06:45:49;20.50;99.90
43043;DHT22;28667;50.758;6.096;2022-08-01T06:48:15;20.50;99.90
43043;DHT22;28667;50.758;6.096;2022-08-01T06:50:41;20.50;99.90
43043;DHT22;28667;50.758;6.096;2022-08-01T06:53:07;20.50;99.90
43043;DHT22;28667;50.758;6.096;2022-08-01T06:55:34;20.60;99.90
43043;DHT22;28667;50.758;6.096;2022-08-01T06:58:00;20.70;99.90
43043;DHT22;28667;50.758;6.096;2022-08-01T07:00:26;20.70;99.90
43043;DHT22;28667;50.758;6.096;2022-08-01T07:02:55;20.80;99.90
43043;DHT22;28667;50.758;6.096;2022-08-01T07:05:23;20.80;99.90
43043;DHT22;28667;50.758;6.096;2022-08-01T07:07:52;20.80;99.90
43043;DHT22;28667;50.758;6.096;2022-08-01T07:10:18;20.80;99.90
43043;DHT22;28667;50.758;6.096;2022-08-01T07:12:45;20.70;99.90
43043;DHT22;28667;50.758;6.096;2022-08-01T07:15:11;20.60;99.90
43043;DHT22;28667;50.758;6.096;2022-08-01T07:17:41;20.70;99.90
43043;DHT22;28667;50.758;6.096;2022-08-01T07:20:10;20.70;99.90
43043;DHT22;28667;50.758;6.096;2022-08-01T07:22:37;20.60;99.90
43043;DHT22;28667;50.758;6.096;2022-08-01T07:25:05;20.60;99.90
43043;DHT22;28667;50.758;6.096;2022-08-01T07:27:31;20.60;99.90
43043;DHT22;28667;50.758;6.096;2022-08-01T07:29:58;20.60;99.90
43043;DHT22;28667;50.758;6.096;2022-08-01T07:32:24;20.70;99.90
43043;DHT22;28667;50.758;6.096;2022-08-01T07:34:50;20.70;99.90
43043;DHT22;28667;50.758;6.096;2022-08-01T07:37:16;20.80;99.90
43043;DHT22;28667;50.758;6.096;2022-08-01T07:39:42;20.80;99.90
43043;DHT22;28667;50.758;6.096;2022-08-01T07:42:08;20.80;99.90
43043;DHT22;28667;50.758;6.096;2022-08-01T07:44:36;20.90;99.90
43043;DHT22;28667;50.758;6.096;2022-08-01T07:47:02;20.90;99.90
43043;DHT22;28667;50.758;6.096;2022-08-01T07:49:28;21.00;99.90
43043;DHT22;28667;50.758;6.096;2022-08-01T07:51:54;21.00;99.90
43043;DHT22;28667;50.758;6.096;2022-08-01T07:54:20;21.00;99.90
43043;DHT22;28667;50.758;6.096;2022-08-01T07:56:50;21.10;99.90
43043;DHT22;28667;50.758;6.096;2022-08-01T07:59:16;21.10;99.90
43043;DHT22;28667;50.758;6.096;2022-08-01T08:01:51;21.20;99.90
43043;DHT22;28667;50.758;6.096;2022-08-01T08:04:17;21.20;99.90
43043;DHT22;28667;50.758;6.096;2022-08-01T08:06:44;21.20;99.90
43043;DHT22;28667;50.758;6.096;2022-08-01T08:09:13;21.30;99.90
43043;DHT22;28667;50.758;6.096;2022-08-01T08:11:42;21.30;99.90
43043;DHT22;28667;50.758;6.096;2022-08-01T08:14:08;21.30;99.90
43043;DHT22;28667;50.758;6.096;2022-08-01T08:16:34;21.20;99.90
43043;DHT22;28667;50.758;6.096;2022-08-01T08:19:00;21.00;99.90
43043;DHT22;28667;50.758;6.096;2022-08-01T08:21:27;21.00;99.90
43043;DHT22;28667;50.758;6.096;2022-08-01T08:23:54;20.90;99.90
43043;DHT22;28667;50.758;6.096;2022-08-01T08:26:38;20.90;99.90
43043;DHT22;28667;50.758;6.096;2022-08-01T08:29:04;21.00;99.90
43043;DHT22;28667;50.758;6.096;2022-08-01T08:31:30;21.10;99.90
43043;DHT22;28667;50.758;6.096;2022-08-01T08:33:56;21.30;99.90
43043;DHT22;28667;50.758;6.096;2022-08-01T08:36:22;21.40;99.90
43043;DHT22;28667;50.758;6.096;2022-08-01T08:38:48;21.40;99.90
43043;DHT22;28667;50.758;6.096;2022-08-01T08:41:14;21.50;99.90
43043;DHT22;28667;50.758;6.096;2022-08-01T08:43:40;21.60;99.90
43043;DHT22;28667;50.758;6.096;2022-08-01T08:46:08;21.70;99.90
43043;DHT22;28667;50.758;6.096;2022-08-01T08:48:35;21.80;99.90
43043;DHT22;28667;50.758;6.096;2022-08-01T08:51:02;21.90;99.90
43043;DHT22;28667;50.758;6.096;2022-08-01T08:53:28;22.00;99.90
43043;DHT22;28667;50.758;6.096;2022-08-01T08:55:57;22.10;99.90
43043;DHT22;28667;50.758;6.096;2022-08-01T08:58:26;22.10;99.90
43043;DHT22;28667;50.758;6.096;2022-08-01T09:00:54;22.20;99.90
43043;DHT22;28667;50.758;6.096;2022-08-01T09:03:20;22.40;99.90
43043;DHT22;28667;50.758;6.096;2022-08-01T09:05:46;22.60;99.90
43043;DHT22;28667;50.758;6.096;2022-08-01T09:08:12;22.70;99.90
43043;DHT22;28667;50.758;6.096;2022-08-01T09:10:38;22.80;99.90
43043;DHT22;28667;50.758;6.096;2022-08-01T09:13:08;22.80;99.90
43043;DHT22;28667;50.758;6.096;2022-08-01T09:18:42;22.90;99.90
43043;DHT22;28667;50.758;6.096;2022-08-01T09:21:15;22.90;99.90
43043;DHT22;28667;50.758;6.096;2022-08-01T09:23:45;23.00;99.90
43043;DHT22;28667;50.758;6.096;2022-08-01T09:26:14;23.10;99.90
43043;DHT22;28667;50.758;6.096;2022-08-01T09:28:41;23.10;99.90
43043;DHT22;28667;50.758;6.096;2022-08-01T09:31:12;23.00;99.90
43043;DHT22;28667;50.758;6.096;2022-08-01T09:33:58;22.90;99.90
43043;DHT22;28667;50.758;6.096;2022-08-01T09:36:27;22.70;99.90
43043;DHT22;28667;50.758;6.096;2022-08-01T09:39:13;22.50;99.90
43043;DHT22;28667;50.758;6.096;2022-08-01T09:41:40;22.20;99.90
43043;DHT22;28667;50.758;6.096;2022-08-01T09:44:06;21.90;99.90
43043;DHT22;28667;50.758;6.096;2022-08-01T09:46:32;21.70;99.90
43043;DHT22;28667;50.758;6.096;2022-08-01T09:49:04;21.50;99.90
43043;DHT22;28667;50.758;6.096;2022-08-01T09:51:36;21.60;99.90
43043;DHT22;28667;50.758;6.096;2022-08-01T09:54:05;21.50;99.90
43043;DHT22;28667;50.758;6.096;2022-08-01T09:56:39;21.60;99.90
43043;DHT22;28667;50.758;6.096;2022-08-01T09:59:08;21.70;99.90
43043;DHT22;28667;50.758;6.096;2022-08-01T10:01:46;21.90;99.90
43043;DHT22;28667;50.758;6.096;2022-08-01T10:04:21;21.90;99.90
43043;DHT22;28667;50.758;6.096;2022-08-01T10:06:49;22.00;99.90
43043;DHT22;28667;50.758;6.096;2022-08-01T10:09:29;22.00;99.90
43043;DHT22;28667;50.758;6.096;2022-08-01T10:11:56;22.00;99.90
43043;DHT22;28667;50.758;6.096;2022-08-01T10:14:24;21.90;99.90
43043;DHT22;28667;50.758;6.096;2022-08-01T10:16:53;22.00;99.90
43043;DHT22;28667;50.758;6.096;2022-08-01T10:19:21;22.10;99.90
43043;DHT22;28667;50.758;6.096;2022-08-01T10:21:50;22.10;99.90
43043;DHT22;28667;50.758;6.096;2022-08-01T10:24:21;22.30;99.90
43043;DHT22;28667;50.758;6.096;2022-08-01T10:27:08;22.40;99.90
43043;DHT22;28667;50.758;6.096;2022-08-01T10:32:05;22.80;99.90
43043;DHT22;28667;50.758;6.096;2022-08-01T10:34:33;22.90;99.90
43043;DHT22;28667;50.758;6.096;2022-08-01T10:37:00;22.90;99.90
43043;DHT22;28667;50.758;6.096;2022-08-01T10:39:26;22.90;99.90
43043;DHT22;28667;50.758;6.096;2022-08-01T10:41:56;22.90;99.90
43043;DHT22;28667;50.758;6.096;2022-08-01T10:44:26;22.90;99.90
43043;DHT22;28667;50.758;6.096;2022-08-01T10:46:57;22.80;99.90
43043;DHT22;28667;50.758;6.096;2022-08-01T10:49:29;22.70;99.90
43043;DHT22;28667;50.758;6.096;2022-08-01T10:51:56;22.80;99.90
43043;DHT22;28667;50.758;6.096;2022-08-01T10:54:26;22.90;99.90
43043;DHT22;28667;50.758;6.096;2022-08-01T10:56:52;22.90;99.90
43043;DHT22;28667;50.758;6.096;2022-08-01T10:59:24;23.10;99.90
43043;DHT22;28667;50.758;6.096;2022-08-01T11:02:04;23.20;99.90
43043;DHT22;28667;50.758;6.096;2022-08-01T11:04:42;23.30;99.90
43043;DHT22;28667;50.758;6.096;2022-08-01T11:07:18;23.40;99.90
43043;DHT22;28667;50.758;6.096;2022-08-01T11:09:47;23.60;99.90
43043;DHT22;28667;50.758;6.096;2022-08-01T11:12:16;23.80;99.90
43043;DHT22;28667;50.758;6.096;2022-08-01T11:20:14;24.20;99.50
43043;DHT22;28667;50.758;6.096;2022-08-01T11:30:49;24.20;98.50
43043;DHT22;28667;50.758;6.096;2022-08-01T11:33:17;24.20;98.90
43043;DHT22;28667;50.758;6.096;2022-08-01T11:38:37;24.30;99.30
43043;DHT22;28667;50.758;6.096;2022-08-01T11:41:14;24.30;97.40
43043;DHT22;28667;50.758;6.096;2022-08-01T11:44:00;24.30;97.20
43043;DHT22;28667;50.758;6.096;2022-08-01T11:47:05;24.30;97.30
43043;DHT22;28667;50.758;6.096;2022-08-01T11:52:27;24.80;95.70
43043;DHT22;28667;50.758;6.096;2022-08-01T11:55:04;25.00;95.50
43043;DHT22;28667;50.758;6.096;2022-08-01T11:57:32;25.20;95.10
43043;DHT22;28667;50.758;6.096;2022-08-01T12:00:10;25.10;95.80
43043;DHT22;28667;50.758;6.096;2022-08-01T12:02:40;25.10;95.10
43043;DHT22;28667;50.758;6.096;2022-08-01T12:05:08;25.10;94.80
43043;DHT22;28667;50.758;6.096;2022-08-01T12:07:37;25.10;95.20
43043;DHT22;28667;50.758;6.096;2022-08-01T12:10:14;25.10;94.90
43043;DHT22;28667;50.758;6.096;2022-08-01T12:13:06;24.90;94.40
43043;DHT22;28667;50.758;6.096;2022-08-01T12:15:33;24.80;94.80
43043;DHT22;28667;50.758;6.096;2022-08-01T12:18:04;24.80;94.00
43043;DHT22;28667;50.758;6.096;2022-08-01T12:20:36;24.80;94.60
43043;DHT22;28667;50.758;6.096;2022-08-01T12:23:08;24.80;94.50
43043;DHT22;28667;50.758;6.096;2022-08-01T12:25:35;24.80;94.70
43043;DHT22;28667;50.758;6.096;2022-08-01T12:28:09;24.80;94.90
43043;DHT22;28667;50.758;6.096;2022-08-01T12:30:36;24.70;95.00
43043;DHT22;28667;50.758;6.096;2022-08-01T12:33:05;24.80;94.60
43043;DHT22;28667;50.758;6.096;2022-08-01T12:35:33;24.90;93.50
43043;DHT22;28667;50.758;6.096;2022-08-01T12:38:05;25.00;93.90
43043;DHT22;28667;50.758;6.096;2022-08-01T12:40:37;25.10;93.20
43043;DHT22;28667;50.758;6.096;2022-08-01T12:43:07;25.20;93.10
43043;DHT22;28667;50.758;6.096;2022-08-01T12:45:37;25.40;92.60
43043;DHT22;28667;50.758;6.096;2022-08-01T12:48:13;25.50;92.50
43043;DHT22;28667;50.758;6.096;2022-08-01T12:50:47;25.70;91.70
43043;DHT22;28667;50.758;6.096;2022-08-01T12:53:13;25.90;91.40
43043;DHT22;28667;50.758;6.096;2022-08-01T12:55:52;26.00;90.60
43043;DHT22;28667;50.758;6.096;2022-08-01T12:58:19;26.20;90.30
43043;DHT22;28667;50.758;6.096;2022-08-01T13:00:47;26.40;88.60
43043;DHT22;28667;50.758;6.096;2022-08-01T13:03:18;26.40;90.20
43043;DHT22;28667;50.758;6.096;2022-08-01T13:05:49;26.40;90.10
43043;DHT22;28667;50.758;6.096;2022-08-01T13:08:19;26.40;89.30
43043;DHT22;28667;50.758;6.096;2022-08-01T13:10:46;26.70;89.00
43043;DHT22;28667;50.758;6.096;2022-08-01T13:13:14;26.70;87.90
43043;DHT22;28667;50.758;6.096;2022-08-01T13:15:41;26.70;86.60
43043;DHT22;28667;50.758;6.096;2022-08-01T13:18:29;26.70;86.00
43043;DHT22;28667;50.758;6.096;2022-08-01T13:21:19;26.70;86.30
43043;DHT22;28667;50.758;6.096;2022-08-01T13:24:08;26.70;87.30
43043;DHT22;28667;50.758;6.096;2022-08-01T13:29:05;26.70;86.80
43043;DHT22;28667;50.758;6.096;2022-08-01T13:31:33;26.70;85.60
43043;DHT22;28667;50.758;6.096;2022-08-01T13:33:59;26.70;86.10
43043;DHT22;28667;50.758;6.096;2022-08-01T13:36:26;26.70;85.50
43043;DHT22;28667;50.758;6.096;2022-08-01T13:38:58;26.50;81.70
43043;DHT22;28667;50.758;6.096;2022-08-01T13:41:43;26.40;82.20
43043;DHT22;28667;50.758;6.096;2022-08-01T13:44:10;26.40;81.60
43043;DHT22;28667;50.758;6.096;2022-08-01T13:46:37;26.30;82.70
43043;DHT22;28667;50.758;6.096;2022-08-01T13:49:05;26.60;84.00
43043;DHT22;28667;50.758;6.096;2022-08-01T13:51:32;26.80;84.50
43043;DHT22;28667;50.758;6.096;2022-08-01T13:53:59;26.90;84.50
43043;DHT22;28667;50.758;6.096;2022-08-01T13:56:25;27.20;83.90
43043;DHT22;28667;50.758;6.096;2022-08-01T13:58:54;27.30;85.00
43043;DHT22;28667;50.758;6.096;2022-08-01T14:01:20;27.40;82.60
43043;DHT22;28667;50.758;6.096;2022-08-01T14:03:47;27.40;82.00
43043;DHT22;28667;50.758;6.096;2022-08-01T14:06:13;27.30;82.20
43043;DHT22;28667;50.758;6.096;2022-08-01T14:08:42;27.20;82.30
43043;DHT22;28667;50.758;6.096;2022-08-01T14:11:08;27.00;82.10
43043;DHT22;28667;50.758;6.096;2022-08-01T14:13:34;27.00;82.50
43043;DHT22;28667;50.758;6.096;2022-08-01T14:16:03;27.00;83.10
43043;DHT22;28667;50.758;6.096;2022-08-01T14:18:29;27.10;83.40
43043;DHT22;28667;50.758;6.096;2022-08-01T14:20:55;27.20;82.20
43043;DHT22;28667;50.758;6.096;2022-08-01T14:23:21;27.10;82.70
43043;DHT22;28667;50.758;6.096;2022-08-01T14:25:47;27.00;82.50
43043;DHT22;28667;50.758;6.096;2022-08-01T14:28:13;27.10;84.00
43043;DHT22;28667;50.758;6.096;2022-08-01T14:30:39;27.20;83.20
43043;DHT22;28667;50.758;6.096;2022-08-01T14:33:07;27.50;80.70
43043;DHT22;28667;50.758;6.096;2022-08-01T14:35:33;27.60;79.90
43043;DHT22;28667;50.758;6.096;2022-08-01T14:37:59;27.50;80.70
43043;DHT22;28667;50.758;6.096;2022-08-01T14:40:25;27.30;79.90
43043;DHT22;28667;50.758;6.096;2022-08-01T14:42:51;27.20;79.70
43043;DHT22;28667;50.758;6.096;2022-08-01T14:45:17;27.00;79.60
43043;DHT22;28667;50.758;6.096;2022-08-01T14:47:43;26.70;80.70
43043;DHT22;28667;50.758;6.096;2022-08-01T14:50:13;26.50;80.90
43043;DHT22;28667;50.758;6.096;2022-08-01T14:52:40;26.50;81.90
43043;DHT22;28667;50.758;6.096;2022-08-01T14:55:08;26.50;82.30
43043;DHT22;28667;50.758;6.096;2022-08-01T14:57:35;26.60;81.70
43043;DHT22;28667;50.758;6.096;2022-08-01T15:00:04;26.70;81.80
43043;DHT22;28667;50.758;6.096;2022-08-01T15:02:31;26.70;82.10
43043;DHT22;28667;50.758;6.096;2022-08-01T15:04:57;26.70;81.70
43043;DHT22;28667;50.758;6.096;2022-08-01T15:07:23;26.60;81.60
43043;DHT22;28667;50.758;6.096;2022-08-01T15:09:49;26.70;81.50
43043;DHT22;28667;50.758;6.096;2022-08-01T15:12:15;26.60;82.70
43043;DHT22;28667;50.758;6.096;2022-08-01T15:14:42;26.20;85.40
43043;DHT22;28667;50.758;6.096;2022-08-01T15:17:26;26.00;85.80
43043;DHT22;28667;50.758;6.096;2022-08-01T15:19:55;26.20;86.30
43043;DHT22;28667;50.758;6.096;2022-08-01T15:22:23;26.10;86.10
43043;DHT22;28667;50.758;6.096;2022-08-01T15:24:50;25.90;87.30
43043;DHT22;28667;50.758;6.096;2022-08-01T15:27:16;25.80;88.30
43043;DHT22;28667;50.758;6.096;2022-08-01T15:29:43;25.80;88.40
43043;DHT22;28667;50.758;6.096;2022-08-01T15:32:09;25.70;87.80
43043;DHT22;28667;50.758;6.096;2022-08-01T15:34:37;25.70;88.60
43043;DHT22;28667;50.758;6.096;2022-08-01T15:37:04;25.70;88.50
43043;DHT22;28667;50.758;6.096;2022-08-01T15:39:31;25.80;87.00
43043;DHT22;28667;50.758;6.096;2022-08-01T15:42:06;25.80;87.10
43043;DHT22;28667;50.758;6.096;2022-08-01T15:44:34;25.60;88.30
43043;DHT22;28667;50.758;6.096;2022-08-01T15:47:01;25.50;89.70
43043;DHT22;28667;50.758;6.096;2022-08-01T15:49:28;25.40;90.10
43043;DHT22;28667;50.758;6.096;2022-08-01T15:51:54;25.50;90.10
43043;DHT22;28667;50.758;6.096;2022-08-01T15:54:20;25.50;89.70
43043;DHT22;28667;50.758;6.096;2022-08-01T15:56:46;25.60;89.80
43043;DHT22;28667;50.758;6.096;2022-08-01T15:59:13;25.70;90.00
43043;DHT22;28667;50.758;6.096;2022-08-01T16:01:40;25.70;90.30
43043;DHT22;28667;50.758;6.096;2022-08-01T16:04:07;25.70;90.10
43043;DHT22;28667;50.758;6.096;2022-08-01T16:06:34;25.50;90.50
43043;DHT22;28667;50.758;6.096;2022-08-01T16:09:03;25.30;91.00
43043;DHT22;28667;50.758;6.096;2022-08-01T16:11:29;25.20;91.00
43043;DHT22;28667;50.758;6.096;2022-08-01T16:13:57;25.20;91.10
43043;DHT22;28667;50.758;6.096;2022-08-01T16:16:23;25.20;91.10
43043;DHT22;28667;50.758;6.096;2022-08-01T16:18:50;25.30;91.20
43043;DHT22;28667;50.758;6.096;2022-08-01T16:21:16;25.40;90.90
43043;DHT22;28667;50.758;6.096;2022-08-01T16:23:43;25.40;90.60